createdAt,value
2022-11-23T00:00:16.882Z,6.70
2022-11-23T00:02:43.350Z,6.71
2022-11-23T00:05:10.761Z,6.78
2022-11-23T00:07:37.533Z,6.85
2022-11-23T00:10:04.342Z,6.77
2022-11-23T00:12:31.196Z,6.76
2022-11-23T00:14:57.886Z,6.73
2022-11-23T00:17:24.395Z,6.73
2022-11-23T00:19:51.082Z,6.80
2022-11-23T00:22:17.753Z,6.78
2022-11-23T00:24:44.904Z,6.80
2022-11-23T00:27:11.669Z,6.78
2022-11-23T00:29:38.094Z,6.76
2022-11-23T00:32:05.420Z,6.74
2022-11-23T00:34:32.273Z,6.73
2022-11-23T00:36:58.724Z,6.76
2022-11-23T00:39:25.172Z,6.76
2022-11-23T00:41:51.904Z,6.76
2022-11-23T00:44:18.590Z,6.78
2022-11-23T00:46:45.406Z,6.80
2022-11-23T00:49:12.471Z,6.80
2022-11-23T00:51:39.312Z,6.77
2022-11-23T00:54:08.526Z,6.83
2022-11-23T00:56:36.100Z,6.84
2022-11-23T00:59:03.965Z,6.85
2022-11-23T01:01:39.505Z,6.84
2022-11-23T01:04:08.868Z,6.84
2022-11-23T01:06:39.488Z,6.79
2022-11-23T01:09:18.452Z,6.83
2022-11-23T01:11:45.743Z,6.79
2022-11-23T01:14:12.640Z,6.78
2022-11-23T01:16:41.654Z,6.70
2022-11-23T01:19:15.226Z,6.78
2022-11-23T01:21:42.801Z,6.77
2022-11-23T01:24:17.729Z,6.76
2022-11-23T01:26:44.569Z,6.76
2022-11-23T01:29:11.689Z,6.76
2022-11-23T01:31:44.665Z,6.76
2022-11-23T01:34:14.727Z,6.76
2022-11-23T01:36:42.459Z,6.78
2022-11-23T01:39:10.393Z,6.79
2022-11-23T01:41:39.769Z,6.72
2022-11-23T01:44:30.697Z,6.74
2022-11-23T01:47:00.644Z,6.76
2022-11-23T01:49:31.651Z,6.73
2022-11-23T01:52:02.184Z,6.75
2022-11-23T01:54:53.184Z,6.76
2022-11-23T01:57:43.655Z,6.80
2022-11-23T02:00:30.362Z,6.74
2022-11-23T02:03:18.400Z,6.71
2022-11-23T02:06:10.189Z,6.78
2022-11-23T02:08:58.702Z,6.74
2022-11-23T02:11:25.283Z,6.77
2022-11-23T02:13:52.098Z,6.75
2022-11-23T02:16:19.038Z,6.77
2022-11-23T02:18:50.045Z,6.75
2022-11-23T02:21:19.789Z,6.72
2022-11-23T02:24:06.129Z,6.75
2022-11-23T02:26:36.375Z,6.74
2022-11-23T02:29:11.105Z,6.77
2022-11-23T02:31:38.016Z,6.73
2022-11-23T02:34:04.587Z,6.79
2022-11-23T02:36:41.881Z,6.76
2022-11-23T02:39:30.508Z,6.73
2022-11-23T02:41:58.280Z,6.72
2022-11-23T02:44:39.389Z,6.74
2022-11-23T02:47:07.234Z,6.75
2022-11-23T02:49:34.285Z,6.74
2022-11-23T02:52:02.332Z,6.74
2022-11-23T02:54:28.954Z,6.73
2022-11-23T02:56:56.753Z,6.72
2022-11-23T02:59:23.510Z,6.72
2022-11-23T03:01:51.989Z,6.69
2022-11-23T03:04:23.038Z,6.73
2022-11-23T03:06:53.962Z,6.80
2022-11-23T03:09:20.787Z,6.81
2022-11-23T03:11:47.315Z,6.77
2022-11-23T03:14:14.442Z,6.77
2022-11-23T03:16:47.940Z,6.79
2022-11-23T03:19:17.290Z,6.78
2022-11-23T03:21:43.920Z,6.77
2022-11-23T03:24:10.661Z,6.76
2022-11-23T03:26:37.338Z,6.82
2022-11-23T03:29:10.295Z,6.78
2022-11-23T03:31:39.796Z,6.77
2022-11-23T03:34:10.987Z,6.78
2022-11-23T03:36:38.393Z,6.82
2022-11-23T03:39:05.289Z,6.81
2022-11-23T03:41:54.459Z,6.81
2022-11-23T03:44:24.811Z,6.83
2022-11-23T03:46:51.398Z,6.81
2022-11-23T03:49:18.495Z,6.86
2022-11-23T03:51:45.348Z,6.89
2022-11-23T03:54:12.027Z,6.83
2022-11-23T03:56:39.515Z,6.83
2022-11-23T03:59:06.193Z,6.88
2022-11-23T04:01:33.330Z,6.95
2022-11-23T04:04:04.419Z,6.94
2022-11-23T04:06:49.728Z,6.89
2022-11-23T04:09:23.177Z,6.91
2022-11-23T04:12:12.536Z,6.95
2022-11-23T04:14:39.781Z,6.88
2022-11-23T04:17:06.655Z,6.91
2022-11-23T04:19:33.580Z,6.86
2022-11-23T04:22:00.313Z,6.90
2022-11-23T04:24:32.376Z,6.86
2022-11-23T04:27:02.444Z,6.86
2022-11-23T04:29:29.667Z,6.90
2022-11-23T04:31:56.441Z,6.96
2022-11-23T04:34:23.981Z,6.92
2022-11-23T04:36:53.259Z,6.93
2022-11-23T04:39:26.305Z,6.95
2022-11-23T04:42:18.082Z,6.87
2022-11-23T04:44:57.733Z,6.84
2022-11-23T04:47:25.147Z,6.86
2022-11-23T04:49:52.616Z,6.92
2022-11-23T04:52:20.041Z,6.97
2022-11-23T04:54:49.615Z,6.96
2022-11-23T04:57:16.239Z,6.90
2022-11-23T04:59:44.738Z,6.91
2022-11-23T05:02:11.840Z,6.97
2022-11-23T05:04:47.051Z,6.96
2022-11-23T05:07:16.328Z,6.93
2022-11-23T05:09:46.645Z,6.88
2022-11-23T05:12:18.202Z,6.84
2022-11-23T05:14:44.957Z,6.87
2022-11-23T05:17:15.806Z,6.85
2022-11-23T05:19:45.425Z,6.92
2022-11-23T05:22:12.815Z,6.90
2022-11-23T05:24:41.014Z,6.90
2022-11-23T05:27:10.932Z,6.94
2022-11-23T05:29:38.487Z,6.93
2022-11-23T05:32:06.685Z,6.89
2022-11-23T05:34:33.272Z,6.87
2022-11-23T05:37:02.068Z,6.93
2022-11-23T05:39:29.278Z,6.92
2022-11-23T05:41:56.179Z,6.89
2022-11-23T05:44:30.841Z,6.94
2022-11-23T05:46:59.316Z,6.91
2022-11-23T05:49:28.955Z,6.91
2022-11-23T05:51:55.864Z,6.86
2022-11-23T05:54:24.195Z,6.88
2022-11-23T05:57:04.916Z,6.90
2022-11-23T05:59:40.384Z,6.91
2022-11-23T06:02:08.931Z,6.90
2022-11-23T06:04:36.388Z,6.96
2022-11-23T06:07:06.039Z,7.00
2022-11-23T06:09:44.917Z,6.95
2022-11-23T06:12:11.876Z,6.95
2022-11-23T06:14:38.444Z,6.93
2022-11-23T06:17:05.651Z,6.97
2022-11-23T06:19:36.816Z,6.97
2022-11-23T06:22:04.953Z,6.98
2022-11-23T06:24:36.441Z,7.02
2022-11-23T06:27:28.782Z,7.04
2022-11-23T06:29:55.434Z,7.01
2022-11-23T06:32:24.639Z,7.10
2022-11-23T06:34:51.323Z,7.04
2022-11-23T06:37:17.824Z,7.01
2022-11-23T06:39:50.658Z,7.10
2022-11-23T06:42:37.895Z,7.06
2022-11-23T06:45:04.533Z,7.12
2022-11-23T06:47:31.482Z,7.11
2022-11-23T06:49:58.373Z,7.15
2022-11-23T06:52:28.529Z,7.06
2022-11-23T06:54:55.304Z,7.06
2022-11-23T06:57:23.997Z,7.08
2022-11-23T06:59:50.891Z,7.04
2022-11-23T07:02:23.360Z,7.07
2022-11-23T07:04:52.274Z,7.08
2022-11-23T07:07:19.696Z,7.02
2022-11-23T07:09:56.630Z,7.02
2022-11-23T07:12:31.888Z,7.00
2022-11-23T07:15:00.251Z,7.00
2022-11-23T07:17:30.593Z,7.10
2022-11-23T07:19:57.605Z,7.04
2022-11-23T07:22:25.159Z,7.18
2022-11-23T07:24:52.035Z,7.14
2022-11-23T07:27:20.377Z,7.14
2022-11-23T07:29:46.943Z,7.17
2022-11-23T07:32:14.935Z,7.06
2022-11-23T07:34:41.731Z,7.00
2022-11-23T07:37:08.735Z,7.11
2022-11-23T07:39:56.392Z,7.07
2022-11-23T07:42:44.573Z,7.13
2022-11-23T07:45:11.829Z,7.29
2022-11-23T07:47:42.355Z,7.31
2022-11-23T07:50:11.007Z,7.35
2022-11-23T07:52:38.415Z,7.44
2022-11-23T07:55:06.052Z,7.42
2022-11-23T07:57:32.978Z,7.41
2022-11-23T07:59:59.479Z,7.54
2022-11-23T08:02:26.179Z,7.66
2022-11-23T08:04:52.646Z,7.72
2022-11-23T08:07:19.391Z,7.74
2022-11-23T08:09:46.807Z,7.85
2022-11-23T08:12:13.388Z,7.83
2022-11-23T08:14:40.403Z,7.80
2022-11-23T08:17:06.910Z,7.91
2022-11-23T08:19:34.637Z,8.09
2022-11-23T08:22:01.393Z,8.02
2022-11-23T08:24:28.174Z,8.04
2022-11-23T08:26:54.581Z,8.04
2022-11-23T08:29:21.460Z,8.26
2022-11-23T08:31:48.232Z,8.63
2022-11-23T08:34:14.885Z,8.49
2022-11-23T08:36:41.418Z,8.55
2022-11-23T08:39:08.961Z,8.61
2022-11-23T08:41:35.672Z,8.62
2022-11-23T08:44:02.135Z,8.55
2022-11-23T08:46:28.843Z,8.79
2022-11-23T08:48:55.451Z,8.96
2022-11-23T08:51:24.897Z,8.78
2022-11-23T08:53:51.424Z,9.07
2022-11-23T08:56:19.105Z,8.97
2022-11-23T08:58:45.991Z,9.08
2022-11-23T09:01:15.133Z,9.20
2022-11-23T09:03:42.718Z,9.32
2022-11-23T09:06:09.906Z,9.25
2022-11-23T09:08:37.139Z,9.02
2022-11-23T09:11:06.602Z,8.87
2022-11-23T09:13:37.071Z,9.52
2022-11-23T09:16:05.560Z,9.48
2022-11-23T09:18:33.436Z,9.87
2022-11-23T09:21:03.637Z,9.74
2022-11-23T09:23:30.543Z,10.00
2022-11-23T09:26:01.326Z,10.11
2022-11-23T09:28:28.403Z,9.99
2022-11-23T09:30:56.138Z,9.82
2022-11-23T09:33:24.521Z,10.25
2022-11-23T09:35:58.929Z,10.18
2022-11-23T09:38:44.512Z,10.14
2022-11-23T09:41:49.933Z,10.03
2022-11-23T09:44:52.567Z,10.28
2022-11-23T09:47:31.561Z,10.20
2022-11-23T09:50:07.153Z,10.60
2022-11-23T09:52:36.019Z,10.71
2022-11-23T09:55:19.585Z,10.48
2022-11-23T09:57:48.665Z,10.30
2022-11-23T10:00:22.251Z,10.61
2022-11-23T10:02:49.375Z,10.64
2022-11-23T10:05:20.256Z,10.41
2022-11-23T10:08:04.409Z,10.59
2022-11-23T10:10:43.473Z,10.63
2022-11-23T10:13:34.154Z,10.55
2022-11-23T10:16:39.324Z,10.59
2022-11-23T10:19:39.918Z,11.14
2022-11-23T10:22:19.086Z,10.72
2022-11-23T10:24:50.214Z,10.72
2022-11-23T10:27:19.850Z,11.03
2022-11-23T10:29:46.544Z,11.01
2022-11-23T10:32:39.964Z,10.87
2022-11-23T10:35:19.640Z,11.11
2022-11-23T10:37:46.109Z,10.97
2022-11-23T10:40:24.238Z,10.96
2022-11-23T10:42:56.645Z,11.21
2022-11-23T10:45:26.611Z,11.16
2022-11-23T10:47:55.715Z,11.50
2022-11-23T10:50:37.795Z,11.50
2022-11-23T10:53:23.461Z,11.38
2022-11-23T10:55:58.226Z,11.64
2022-11-23T10:58:35.006Z,11.28
2022-11-23T11:01:07.462Z,11.83
2022-11-23T11:03:35.117Z,11.47
2022-11-23T11:06:10.753Z,11.42
2022-11-23T11:09:03.737Z,11.77
2022-11-23T11:11:37.239Z,11.55
2022-11-23T11:14:19.887Z,11.56
2022-11-23T11:16:57.955Z,11.64
2022-11-23T11:19:29.459Z,11.90
2022-11-23T11:21:57.635Z,12.02
2022-11-23T11:24:37.055Z,11.76
2022-11-23T11:27:14.213Z,11.66
2022-11-23T11:29:43.991Z,11.66
2022-11-23T11:32:38.389Z,12.04
2022-11-23T11:35:23.118Z,11.98
2022-11-23T11:37:52.373Z,11.92
2022-11-23T11:40:42.113Z,12.13
2022-11-23T11:43:22.820Z,12.49
2022-11-23T11:46:27.489Z,12.91
2022-11-23T11:48:49.193Z,12.20
2022-11-23T11:51:25.024Z,12.42
2022-11-23T11:54:10.644Z,12.32
2022-11-23T11:56:41.864Z,12.86
2022-11-23T11:59:22.611Z,12.52
2022-11-23T12:02:25.298Z,12.12
2022-11-23T12:05:12.906Z,12.11
2022-11-23T12:07:58.180Z,12.63
2022-11-23T12:10:41.281Z,12.52
2022-11-23T12:13:17.494Z,12.70
2022-11-23T12:15:55.106Z,12.97
2022-11-23T12:18:30.271Z,12.89
2022-11-23T12:21:06.373Z,12.60
2022-11-23T12:23:54.292Z,12.83
2022-11-23T12:26:45.480Z,13.11
2022-11-23T12:29:15.005Z,12.99
2022-11-23T12:31:48.015Z,13.19
2022-11-23T12:34:20.294Z,13.36
2022-11-23T12:36:59.522Z,13.07
2022-11-23T12:40:02.840Z,12.91
2022-11-23T12:42:44.363Z,13.23
2022-11-23T12:45:35.560Z,12.96
2022-11-23T12:48:11.502Z,13.54
2022-11-23T12:50:56.463Z,14.12
2022-11-23T12:53:41.812Z,14.15
2022-11-23T12:56:40.124Z,13.99
2022-11-23T12:59:11.098Z,14.19
2022-11-23T13:01:52.664Z,14.32
2022-11-23T13:04:59.947Z,14.80
2022-11-23T13:07:51.930Z,14.26
2022-11-23T13:10:33.755Z,14.20
2022-11-23T13:13:24.870Z,13.98
2022-11-23T13:16:26.836Z,14.15
2022-11-23T13:19:04.449Z,14.17
2022-11-23T13:21:37.620Z,13.99
2022-11-23T13:24:04.647Z,14.07
2022-11-23T13:26:31.633Z,13.98
2022-11-23T13:28:59.054Z,14.14
2022-11-23T13:31:28.637Z,14.17
2022-11-23T13:34:00.952Z,14.55
2022-11-23T13:36:56.307Z,14.37
2022-11-23T13:39:53.590Z,13.77
2022-11-23T13:42:20.385Z,13.88
2022-11-23T13:44:46.908Z,13.93
2022-11-23T13:47:14.814Z,14.17
2022-11-23T13:49:52.548Z,14.11
2022-11-23T13:52:24.992Z,13.90
2022-11-23T13:55:10.696Z,13.94
2022-11-23T13:57:39.188Z,14.12
2022-11-23T14:00:43.481Z,13.67
2022-11-23T14:03:50.410Z,13.81
2022-11-23T14:06:38.219Z,13.63
2022-11-23T14:09:51.883Z,13.74
2022-11-23T14:12:44.760Z,13.56
2022-11-23T14:15:17.129Z,13.59
2022-11-23T14:18:03.159Z,13.13
2022-11-23T14:20:48.601Z,13.22
2022-11-23T14:23:36.566Z,12.93
2022-11-23T14:26:27.913Z,12.62
2022-11-23T14:29:19.349Z,12.57
2022-11-23T14:32:07.117Z,12.75
2022-11-23T14:34:36.767Z,12.43
2022-11-23T14:37:32.253Z,12.40
2022-11-23T14:40:08.076Z,12.23
2022-11-23T14:42:52.328Z,12.15
2022-11-23T14:45:21.515Z,12.23
2022-11-23T14:47:48.208Z,12.18
2022-11-23T14:50:26.996Z,12.07
2022-11-23T14:52:55.673Z,11.90
2022-11-23T14:55:25.409Z,11.65
2022-11-23T14:58:03.582Z,11.24
2022-11-23T15:00:37.414Z,10.96
2022-11-23T15:03:42.519Z,11.01
2022-11-23T15:06:10.563Z,11.00
2022-11-23T15:08:47.441Z,10.91
2022-11-23T15:11:21.467Z,10.79
2022-11-23T15:13:54.505Z,10.86
2022-11-23T15:16:22.261Z,10.71
2022-11-23T15:18:49.251Z,10.73
2022-11-23T15:21:27.577Z,10.65
2022-11-23T15:23:57.534Z,10.58
2022-11-23T15:26:47.315Z,10.52
2022-11-23T15:29:37.793Z,10.30
2022-11-23T15:32:30.819Z,10.18
2022-11-23T15:35:07.614Z,10.14
2022-11-23T15:37:44.058Z,10.16
2022-11-23T15:40:16.227Z,10.15
2022-11-23T15:42:44.710Z,10.05
2022-11-23T15:45:37.672Z,10.03
2022-11-23T15:48:09.436Z,9.89
2022-11-23T15:50:46.220Z,9.88
2022-11-23T15:53:13.558Z,9.88
2022-11-23T15:55:40.343Z,9.87
2022-11-23T15:58:08.563Z,9.82
2022-11-23T16:00:36.321Z,9.77
2022-11-23T16:03:28.750Z,9.68
2022-11-23T16:06:13.825Z,9.73
2022-11-23T16:08:41.334Z,9.67
2022-11-23T16:11:35.220Z,9.63
2022-11-23T16:14:20.052Z,9.69
2022-11-23T16:16:48.711Z,9.71
2022-11-23T16:19:33.752Z,9.74
2022-11-23T16:22:04.075Z,9.70
2022-11-23T16:24:33.791Z,9.70
2022-11-23T16:27:01.470Z,9.70
2022-11-23T16:29:36.738Z,9.68
2022-11-23T16:32:07.339Z,9.70
2022-11-23T16:34:34.372Z,9.72
2022-11-23T16:37:03.759Z,9.74
2022-11-23T16:39:30.221Z,9.74
2022-11-23T16:41:56.836Z,9.77
2022-11-23T16:44:23.279Z,9.77
2022-11-23T16:46:50.105Z,9.78
2022-11-23T16:49:19.651Z,9.74
2022-11-23T16:51:54.968Z,9.75
2022-11-23T16:54:25.089Z,9.76
2022-11-23T16:56:52.649Z,9.74
2022-11-23T16:59:19.672Z,9.76
2022-11-23T17:01:53.928Z,9.76
2022-11-23T17:04:22.313Z,9.73
2022-11-23T17:06:49.502Z,9.73
2022-11-23T17:09:15.999Z,9.73
2022-11-23T17:11:45.750Z,9.73
2022-11-23T17:14:18.439Z,9.71
2022-11-23T17:16:46.428Z,9.64
2022-11-23T17:19:18.247Z,9.53
2022-11-23T17:21:45.066Z,9.39
2022-11-23T17:24:12.786Z,9.30
2022-11-23T17:26:47.744Z,9.20
2022-11-23T17:29:19.007Z,9.06
2022-11-23T17:31:50.394Z,8.83
2022-11-23T17:34:17.859Z,8.80
2022-11-23T17:36:46.628Z,8.69
2022-11-23T17:39:25.053Z,8.67
2022-11-23T17:41:51.765Z,8.48
2022-11-23T17:44:18.279Z,8.55
2022-11-23T17:46:45.863Z,8.50
2022-11-23T17:49:14.674Z,8.38
2022-11-23T17:51:41.262Z,8.32
2022-11-23T17:54:07.786Z,8.26
2022-11-23T17:56:34.673Z,8.31
2022-11-23T17:59:01.195Z,8.30
2022-11-23T18:01:29.309Z,8.33
2022-11-23T18:03:57.406Z,8.27
2022-11-23T18:06:24.945Z,8.20
2022-11-23T18:08:52.185Z,8.22
2022-11-23T18:11:19.757Z,8.24
2022-11-23T18:13:50.618Z,8.18
2022-11-23T18:16:19.742Z,8.15
2022-11-23T18:18:46.825Z,8.24
2022-11-23T18:21:14.419Z,8.26
2022-11-23T18:23:42.398Z,8.29
2022-11-23T18:26:21.690Z,8.24
2022-11-23T18:28:49.792Z,8.21
2022-11-23T18:31:17.867Z,8.24
2022-11-23T18:33:45.024Z,8.14
2022-11-23T18:36:12.935Z,8.11
2022-11-23T18:38:41.129Z,8.18
2022-11-23T18:41:08.184Z,8.06
2022-11-23T18:43:35.435Z,8.02
2022-11-23T18:46:06.112Z,8.06
2022-11-23T18:48:33.013Z,8.00
2022-11-23T18:51:01.197Z,7.93
2022-11-23T18:53:27.629Z,7.83
2022-11-23T18:56:00.170Z,7.91
2022-11-23T18:58:32.260Z,7.73
2022-11-23T19:00:59.124Z,7.67
2022-11-23T19:03:25.636Z,7.65
2022-11-23T19:05:52.228Z,7.62
2022-11-23T19:08:18.792Z,7.58
2022-11-23T19:10:45.289Z,7.55
2022-11-23T19:13:11.748Z,7.46
2022-11-23T19:15:38.735Z,7.51
2022-11-23T19:18:05.232Z,7.45
2022-11-23T19:20:32.075Z,7.49
2022-11-23T19:22:58.536Z,7.42
2022-11-23T19:25:25.072Z,7.41
2022-11-23T19:27:52.717Z,7.36
2022-11-23T19:30:19.173Z,7.37
2022-11-23T19:32:45.646Z,7.33
2022-11-23T19:35:12.546Z,7.39
2022-11-23T19:37:39.422Z,7.39
2022-11-23T19:40:07.006Z,7.33
2022-11-23T19:42:35.720Z,7.27
2022-11-23T19:45:03.451Z,7.32
2022-11-23T19:47:31.664Z,7.26
2022-11-23T19:49:59.111Z,7.26
2022-11-23T19:52:47.986Z,7.31
2022-11-23T19:55:16.543Z,7.25
2022-11-23T19:57:43.030Z,7.21
2022-11-23T20:00:10.807Z,7.30
2022-11-23T20:02:38.662Z,7.33
2022-11-23T20:05:05.648Z,7.30
2022-11-23T20:07:32.259Z,7.30
2022-11-23T20:09:58.795Z,7.31
2022-11-23T20:12:25.381Z,7.24
2022-11-23T20:14:52.028Z,7.30
2022-11-23T20:17:18.782Z,7.30
2022-11-23T20:19:45.266Z,7.31
2022-11-23T20:22:11.757Z,7.28
2022-11-23T20:24:38.788Z,7.37
2022-11-23T20:27:05.267Z,7.33
2022-11-23T20:29:32.354Z,7.34
2022-11-23T20:31:59.135Z,7.36
2022-11-23T20:34:26.500Z,7.36
2022-11-23T20:36:53.054Z,7.38
2022-11-23T20:39:19.742Z,7.35
2022-11-23T20:41:49.182Z,7.26
2022-11-23T20:44:15.913Z,7.23
2022-11-23T20:49:30.457Z,7.22
2022-11-23T20:51:57.466Z,7.20
2022-11-23T20:54:23.922Z,7.21
2022-11-23T20:56:50.783Z,7.21
2022-11-23T20:59:17.304Z,7.20
2022-11-23T21:01:43.840Z,7.13
2022-11-23T21:04:10.615Z,7.17
2022-11-23T21:06:39.479Z,7.08
2022-11-23T21:09:07.611Z,7.04
2022-11-23T21:11:52.561Z,7.04
2022-11-23T21:14:20.873Z,7.02
2022-11-23T21:16:53.394Z,7.02
2022-11-23T21:19:28.327Z,7.00
2022-11-23T21:21:55.862Z,7.03
2022-11-23T21:24:22.710Z,7.11
2022-11-23T21:26:49.789Z,7.11
2022-11-23T21:29:18.361Z,7.15
2022-11-23T21:31:46.675Z,7.12
2022-11-23T21:34:25.221Z,7.17
2022-11-23T21:36:53.097Z,7.18
2022-11-23T21:39:20.370Z,7.11
2022-11-23T21:41:49.449Z,7.13
2022-11-23T21:44:16.599Z,7.18
2022-11-23T21:46:43.636Z,7.16
2022-11-23T21:49:10.824Z,7.17
2022-11-23T21:51:38.504Z,7.20
2022-11-23T21:54:08.255Z,7.12
2022-11-23T21:56:35.245Z,7.09
2022-11-23T21:59:06.115Z,7.09
2022-11-23T22:01:35.505Z,7.05
2022-11-23T22:04:04.795Z,7.04
2022-11-23T22:06:45.548Z,6.99
2022-11-23T22:09:13.321Z,7.06
2022-11-23T22:11:42.869Z,7.06
2022-11-23T22:14:12.126Z,7.04
2022-11-23T22:16:41.459Z,7.03
2022-11-23T22:19:11.673Z,7.05
2022-11-23T22:21:39.513Z,7.10
2022-11-23T22:24:10.435Z,7.15
2022-11-23T22:26:37.006Z,7.17
2022-11-23T22:29:06.889Z,7.21
2022-11-23T22:31:34.980Z,7.21
2022-11-23T22:34:03.937Z,7.21
2022-11-23T22:36:31.369Z,7.22
2022-11-23T22:39:01.891Z,7.26
2022-11-23T22:41:30.748Z,7.22
2022-11-23T22:43:57.426Z,7.24
2022-11-23T22:46:25.180Z,7.22
2022-11-23T22:48:52.871Z,7.22
2022-11-23T22:51:23.569Z,7.27
2022-11-23T22:53:57.117Z,7.28
2022-11-23T22:56:24.536Z,7.32
2022-11-23T22:58:51.078Z,7.36
2022-11-23T23:01:20.751Z,7.34
2022-11-23T23:03:48.253Z,7.44
2022-11-23T23:06:20.502Z,7.33
2022-11-23T23:08:48.258Z,7.34
2022-11-23T23:11:15.532Z,7.33
2022-11-23T23:13:42.349Z,7.32
2022-11-23T23:16:12.627Z,7.37
2022-11-23T23:18:43.145Z,7.37
2022-11-23T23:21:11.070Z,7.31
2022-11-23T23:23:39.321Z,7.35
2022-11-23T23:26:06.496Z,7.33
2022-11-23T23:28:34.133Z,7.36
2022-11-23T23:31:02.498Z,7.29
2022-11-23T23:33:29.684Z,7.30
2022-11-23T23:35:56.749Z,7.32
2022-11-23T23:38:29.723Z,7.30
2022-11-23T23:40:56.877Z,7.35
2022-11-23T23:43:23.367Z,7.35
2022-11-23T23:45:51.822Z,7.36
2022-11-23T23:48:18.496Z,7.40
2022-11-23T23:50:45.306Z,7.39
2022-11-23T23:53:11.822Z,7.38
2022-11-23T23:55:38.432Z,7.38
2022-11-23T23:58:04.911Z,7.42
